createdAt,value
2019-03-05T00:00:40.802Z,994.44
2019-03-05T00:01:40.786Z,994.41
2019-03-05T00:02:40.793Z,994.52
2019-03-05T00:03:40.767Z,994.51
2019-03-05T00:04:40.751Z,994.45
2019-03-05T00:05:40.745Z,994.47
2019-03-05T00:06:40.729Z,994.57
2019-03-05T00:07:40.723Z,994.50
2019-03-05T00:08:40.720Z,994.53
2019-03-05T00:09:40.697Z,994.58
2019-03-05T00:10:40.687Z,994.60
2019-03-05T00:11:40.678Z,994.58
2019-03-05T00:12:40.666Z,994.65
2019-03-05T00:13:40.652Z,994.62
2019-03-05T00:14:40.652Z,994.53
2019-03-05T00:15:40.629Z,994.65
2019-03-05T00:16:40.629Z,994.57
2019-03-05T00:17:40.607Z,994.62
2019-03-05T00:18:40.607Z,994.68
2019-03-05T00:19:40.586Z,994.61
2019-03-05T00:20:40.584Z,994.61
2019-03-05T00:21:40.563Z,994.60
2019-03-05T00:22:40.557Z,994.71
2019-03-05T00:23:40.541Z,994.65
2019-03-05T00:24:40.544Z,994.71
2019-03-05T00:25:40.519Z,994.61
2019-03-05T00:26:40.519Z,994.73
2019-03-05T00:27:40.497Z,994.72
2019-03-05T00:28:40.491Z,994.68
2019-03-05T00:29:40.475Z,994.72
2019-03-05T00:30:40.465Z,994.75
2019-03-05T00:31:40.458Z,994.76
2019-03-05T00:32:40.456Z,994.73
2019-03-05T00:33:40.435Z,994.71
2019-03-05T00:34:40.428Z,994.75
2019-03-05T00:35:40.411Z,994.73
2019-03-05T00:36:40.418Z,994.58
2019-03-05T00:37:40.391Z,994.81
2019-03-05T00:38:40.394Z,994.79
2019-03-05T00:39:40.368Z,994.83
2019-03-05T00:40:40.364Z,994.78
2019-03-05T00:41:40.346Z,994.83
2019-03-05T00:42:40.339Z,994.78
2019-03-05T00:43:40.327Z,994.84
2019-03-05T00:44:40.331Z,994.89
2019-03-05T00:45:40.307Z,994.82
2019-03-05T00:46:40.302Z,994.83
2019-03-05T00:47:40.283Z,994.84
2019-03-05T00:48:40.271Z,994.83
2019-03-05T00:49:40.261Z,994.83
2019-03-05T00:50:40.267Z,994.92
2019-03-05T00:51:40.240Z,994.86
2019-03-05T00:52:40.238Z,994.90
2019-03-05T00:53:40.222Z,994.92
2019-03-05T00:54:40.208Z,995.01
2019-03-05T00:55:40.197Z,994.96
2019-03-05T00:56:40.203Z,995.04
2019-03-05T00:57:40.176Z,994.97
2019-03-05T00:58:40.178Z,994.98
2019-03-05T00:59:40.155Z,994.89
2019-03-05T01:00:40.167Z,995.02
2019-03-05T01:01:40.133Z,995.05
2019-03-05T01:02:40.170Z,995.04
2019-03-05T01:03:40.114Z,995.01
2019-03-05T01:04:40.112Z,995.04
2019-03-05T01:05:40.105Z,995.08
2019-03-05T01:06:40.080Z,995.03
2019-03-05T01:07:40.071Z,995.10
2019-03-05T01:08:40.083Z,995.07
2019-03-05T01:09:40.052Z,995.05
2019-03-05T01:10:40.038Z,995.07
2019-03-05T01:11:40.033Z,995.10
2019-03-05T01:12:40.017Z,995.09
2019-03-05T01:13:40.004Z,995.09
2019-03-05T01:14:40.011Z,995.12
2019-03-05T01:15:39.983Z,995.16
2019-03-05T01:16:39.974Z,995.20
2019-03-05T01:17:39.966Z,995.14
2019-03-05T01:18:39.950Z,995.14
2019-03-05T01:19:39.947Z,995.19
2019-03-05T01:20:39.941Z,995.15
2019-03-05T01:21:39.922Z,995.19
2019-03-05T01:22:39.921Z,995.14
2019-03-05T01:23:39.897Z,995.13
2019-03-05T01:24:39.922Z,995.19
2019-03-05T01:25:39.876Z,995.21
2019-03-05T01:26:39.879Z,995.19
2019-03-05T01:27:39.856Z,995.25
2019-03-05T01:28:39.848Z,995.18
2019-03-05T01:29:39.834Z,995.13
2019-03-05T01:30:39.824Z,995.13
2019-03-05T01:31:39.815Z,995.19
2019-03-05T01:32:39.847Z,995.15
2019-03-05T01:33:39.791Z,995.15
2019-03-05T01:34:39.784Z,995.26
2019-03-05T01:35:39.770Z,995.30
2019-03-05T01:36:39.766Z,995.30
2019-03-05T01:37:39.753Z,995.22
2019-03-05T01:38:39.754Z,995.26
2019-03-05T01:39:39.732Z,995.26
2019-03-05T01:40:39.732Z,995.24
2019-03-05T01:41:39.706Z,995.24
2019-03-05T01:42:39.710Z,995.25
2019-03-05T01:43:39.688Z,995.25
2019-03-05T01:44:39.694Z,995.30
2019-03-05T01:45:39.671Z,995.22
2019-03-05T01:46:39.662Z,995.27
2019-03-05T01:47:39.644Z,995.27
2019-03-05T01:48:39.645Z,995.34
2019-03-05T01:49:39.624Z,995.31
2019-03-05T01:50:39.623Z,995.40
2019-03-05T01:51:39.602Z,995.30
2019-03-05T01:52:39.600Z,995.28
2019-03-05T01:53:39.584Z,995.45
2019-03-05T01:54:39.570Z,995.41
2019-03-05T01:55:39.559Z,995.34
2019-03-05T01:56:39.559Z,995.41
2019-03-05T01:57:39.541Z,995.36
2019-03-05T01:58:39.533Z,995.41
2019-03-05T01:59:39.546Z,995.40
2019-03-05T02:00:39.505Z,995.42
2019-03-05T02:01:39.498Z,995.47
2019-03-05T02:02:39.498Z,995.47
2019-03-05T02:03:39.492Z,995.43
2019-03-05T02:04:39.468Z,995.50
2019-03-05T02:05:39.482Z,995.49
2019-03-05T02:06:39.449Z,995.46
2019-03-05T02:07:39.442Z,995.47
2019-03-05T02:08:39.436Z,995.43
2019-03-05T02:09:39.418Z,995.53
2019-03-05T02:10:39.402Z,995.50
2019-03-05T02:11:39.397Z,995.54
2019-03-05T02:12:39.387Z,995.51
2019-03-05T02:13:39.366Z,995.52
2019-03-05T02:14:39.372Z,995.57
2019-03-05T02:15:39.343Z,995.53
2019-03-05T02:16:39.339Z,995.42
2019-03-05T02:17:39.321Z,995.45
2019-03-05T02:18:39.310Z,995.51
2019-03-05T02:19:39.320Z,995.54
2019-03-05T02:20:39.315Z,995.50
2019-03-05T02:21:39.278Z,995.55
2019-03-05T02:22:39.267Z,995.53
2019-03-05T02:23:39.258Z,995.53
2019-03-05T02:24:39.245Z,995.55
2019-03-05T02:25:39.252Z,995.50
2019-03-05T02:26:39.236Z,995.56
2019-03-05T02:27:39.221Z,995.56
2019-03-05T02:28:39.204Z,995.54
2019-03-05T02:29:39.193Z,995.53
2019-03-05T02:30:39.182Z,995.59
2019-03-05T02:31:39.171Z,995.51
2019-03-05T02:32:39.179Z,995.54
2019-03-05T02:33:39.150Z,995.53
2019-03-05T02:34:39.138Z,995.63
2019-03-05T02:35:39.134Z,995.55
2019-03-05T02:36:39.118Z,995.50
2019-03-05T02:37:39.129Z,995.56
2019-03-05T02:38:39.109Z,995.51
2019-03-05T02:39:39.086Z,995.55
2019-03-05T02:40:39.079Z,995.58
2019-03-05T02:41:39.063Z,995.65
2019-03-05T02:42:39.060Z,995.62
2019-03-05T02:43:39.042Z,995.63
2019-03-05T02:44:39.044Z,995.64
2019-03-05T02:45:39.022Z,995.60
2019-03-05T02:46:39.010Z,995.59
2019-03-05T02:47:39.000Z,995.59
2019-03-05T02:48:38.987Z,995.61
2019-03-05T02:49:38.979Z,995.65
2019-03-05T02:50:38.987Z,995.66
2019-03-05T02:51:38.954Z,995.61
2019-03-05T02:52:38.948Z,995.63
2019-03-05T02:53:38.962Z,995.62
2019-03-05T02:54:38.924Z,995.62
2019-03-05T02:55:38.911Z,995.51
2019-03-05T02:56:38.919Z,995.57
2019-03-05T02:57:38.890Z,995.57
2019-03-05T02:58:38.882Z,995.60
2019-03-05T02:59:38.875Z,995.58
2019-03-05T03:00:38.857Z,995.58
2019-03-05T03:01:38.845Z,995.58
2019-03-05T03:02:38.844Z,995.63
2019-03-05T03:03:38.829Z,995.63
2019-03-05T03:04:38.815Z,995.58
2019-03-05T03:05:38.806Z,995.58
2019-03-05T03:06:38.792Z,995.64
2019-03-05T03:07:38.784Z,995.62
2019-03-05T03:08:38.796Z,995.57
2019-03-05T03:09:38.764Z,995.61
2019-03-05T03:10:38.754Z,995.59
2019-03-05T03:11:38.761Z,995.62
2019-03-05T03:12:38.730Z,995.65
2019-03-05T03:13:38.724Z,995.61
2019-03-05T03:14:38.717Z,995.61
2019-03-05T03:15:38.696Z,995.61
2019-03-05T03:16:38.685Z,995.61
2019-03-05T03:17:38.671Z,995.62
2019-03-05T03:18:38.660Z,995.72
2019-03-05T03:19:38.648Z,995.67
2019-03-05T03:20:38.719Z,995.70
2019-03-05T03:21:38.629Z,995.71
2019-03-05T03:22:38.624Z,995.74
2019-03-05T03:23:38.623Z,995.70
2019-03-05T03:24:38.605Z,995.77
2019-03-05T03:25:38.586Z,995.75
2019-03-05T03:26:38.582Z,995.85
2019-03-05T03:27:38.560Z,995.81
2019-03-05T03:28:38.550Z,995.82
2019-03-05T03:29:38.540Z,995.80
2019-03-05T03:30:38.529Z,995.80
2019-03-05T03:31:38.518Z,995.86
2019-03-05T03:32:38.519Z,995.88
2019-03-05T03:33:38.518Z,995.86
2019-03-05T03:34:38.491Z,995.89
2019-03-05T03:35:38.482Z,995.84
2019-03-05T03:36:38.483Z,995.90
2019-03-05T03:37:38.457Z,995.86
2019-03-05T03:38:38.453Z,995.97
2019-03-05T03:39:38.432Z,996.01
2019-03-05T03:40:38.424Z,995.97
2019-03-05T03:41:38.410Z,996.03
2019-03-05T03:42:38.399Z,995.95
2019-03-05T03:43:38.388Z,996.00
2019-03-05T03:44:38.392Z,996.06
2019-03-05T03:45:38.368Z,996.09
2019-03-05T03:46:38.356Z,996.15
2019-03-05T03:47:38.345Z,996.19
2019-03-05T03:48:38.334Z,996.06
2019-03-05T03:49:38.324Z,996.01
2019-03-05T03:50:38.322Z,995.99
2019-03-05T03:51:38.303Z,996.02
2019-03-05T03:52:38.296Z,996.02
2019-03-05T03:53:38.288Z,996.04
2019-03-05T03:54:38.270Z,996.00
2019-03-05T03:55:38.261Z,996.05
2019-03-05T03:56:38.259Z,996.07
2019-03-05T03:57:38.254Z,996.06
2019-03-05T03:58:38.228Z,995.98
2019-03-05T03:59:38.224Z,996.04
2019-03-05T04:00:38.206Z,996.09
2019-03-05T04:01:38.196Z,996.06
2019-03-05T04:02:38.204Z,996.10
2019-03-05T04:03:38.175Z,996.13
2019-03-05T04:04:38.171Z,996.11
2019-03-05T04:05:38.153Z,995.95
2019-03-05T04:06:38.142Z,995.96
2019-03-05T04:07:38.130Z,995.99
2019-03-05T04:08:38.141Z,996.08
2019-03-05T04:09:38.110Z,996.07
2019-03-05T04:10:38.100Z,995.93
2019-03-05T04:11:38.091Z,995.98
2019-03-05T04:12:38.079Z,996.03
2019-03-05T04:13:38.073Z,996.02
2019-03-05T04:14:38.069Z,996.06
2019-03-05T04:15:38.046Z,996.04
2019-03-05T04:16:38.039Z,996.01
2019-03-05T04:17:38.026Z,996.09
2019-03-05T04:18:38.023Z,995.93
2019-03-05T04:19:38.013Z,996.07
2019-03-05T04:20:38.004Z,996.06
2019-03-05T04:21:37.983Z,996.00
2019-03-05T04:22:37.977Z,996.10
2019-03-05T04:23:37.963Z,996.08
2019-03-05T04:24:37.953Z,996.09
2019-03-05T04:25:37.942Z,996.16
2019-03-05T04:26:37.941Z,996.13
2019-03-05T04:27:37.920Z,996.25
2019-03-05T04:28:37.910Z,996.23
2019-03-05T04:29:37.904Z,996.24
2019-03-05T04:30:37.889Z,996.26
2019-03-05T04:31:37.886Z,996.27
2019-03-05T04:32:37.882Z,996.26
2019-03-05T04:33:37.862Z,996.31
2019-03-05T04:34:37.847Z,996.22
2019-03-05T04:35:37.845Z,996.27
2019-03-05T04:36:37.825Z,996.32
2019-03-05T04:37:37.815Z,996.27
2019-03-05T04:38:37.815Z,996.26
2019-03-05T04:39:37.795Z,996.17
2019-03-05T04:40:37.785Z,996.34
2019-03-05T04:41:37.775Z,996.25
2019-03-05T04:42:37.763Z,996.27
2019-03-05T04:43:37.753Z,996.27
2019-03-05T04:44:37.752Z,996.26
2019-03-05T04:45:37.737Z,996.32
2019-03-05T04:46:37.725Z,996.20
2019-03-05T04:47:37.710Z,996.29
2019-03-05T04:48:37.700Z,996.26
2019-03-05T04:49:37.689Z,996.30
2019-03-05T04:50:37.717Z,996.34
2019-03-05T04:51:37.668Z,996.33
2019-03-05T04:52:37.665Z,996.30
2019-03-05T04:53:37.648Z,996.32
2019-03-05T04:54:37.637Z,996.29
2019-03-05T04:55:37.627Z,996.32
2019-03-05T04:56:37.627Z,996.28
2019-03-05T04:57:37.606Z,996.27
2019-03-05T04:58:37.599Z,996.26
2019-03-05T04:59:37.585Z,996.28
2019-03-05T05:00:37.575Z,996.28
2019-03-05T05:01:37.564Z,996.27
2019-03-05T05:02:37.566Z,996.26
2019-03-05T05:03:37.544Z,996.40
2019-03-05T05:04:37.533Z,996.32
2019-03-05T05:05:37.525Z,996.34
2019-03-05T05:06:37.512Z,996.30
2019-03-05T05:07:37.501Z,996.36
2019-03-05T05:08:37.506Z,996.36
2019-03-05T05:09:38.007Z,996.37
2019-03-05T05:10:37.470Z,996.26
2019-03-05T05:11:37.472Z,996.38
2019-03-05T05:12:37.449Z,996.37
2019-03-05T05:13:37.439Z,996.42
2019-03-05T05:14:37.440Z,996.43
2019-03-05T05:15:37.418Z,996.36
2019-03-05T05:16:37.418Z,996.38
2019-03-05T05:17:37.398Z,996.33
2019-03-05T05:18:37.384Z,996.44
2019-03-05T05:19:37.383Z,996.33
2019-03-05T05:20:37.380Z,996.36
2019-03-05T05:21:37.355Z,996.41
2019-03-05T05:22:37.344Z,996.42
2019-03-05T05:23:37.333Z,996.40
2019-03-05T05:24:37.322Z,996.49
2019-03-05T05:25:37.312Z,996.42
2019-03-05T05:26:37.311Z,996.44
2019-03-05T05:27:37.290Z,996.37
2019-03-05T05:28:37.280Z,996.47
2019-03-05T05:29:37.269Z,996.45
2019-03-05T05:30:37.265Z,996.42
2019-03-05T05:31:37.250Z,996.50
2019-03-05T05:32:37.248Z,996.45
2019-03-05T05:33:37.227Z,996.39
2019-03-05T05:34:37.219Z,996.48
2019-03-05T05:35:37.207Z,996.48
2019-03-05T05:36:37.203Z,996.47
2019-03-05T05:37:37.190Z,996.49
2019-03-05T05:38:37.188Z,996.49
2019-03-05T05:39:37.165Z,996.48
2019-03-05T05:40:37.159Z,996.45
2019-03-05T05:41:37.145Z,996.42
2019-03-05T05:42:37.132Z,996.48
2019-03-05T05:43:37.125Z,996.45
2019-03-05T05:44:37.126Z,996.52
2019-03-05T05:45:37.101Z,996.55
2019-03-05T05:46:37.091Z,996.57
2019-03-05T05:47:37.080Z,996.49
2019-03-05T05:48:37.069Z,996.59
2019-03-05T05:49:37.062Z,996.54
2019-03-05T05:50:37.059Z,996.65
2019-03-05T05:51:37.037Z,996.53
2019-03-05T05:52:37.027Z,996.67
2019-03-05T05:53:37.026Z,996.61
2019-03-05T05:54:37.005Z,996.64
2019-03-05T05:55:36.996Z,996.61
2019-03-05T05:56:36.994Z,996.61
2019-03-05T05:57:36.976Z,996.66
2019-03-05T05:58:36.980Z,996.68
2019-03-05T05:59:36.953Z,996.68
2019-03-05T06:00:36.942Z,996.70
2019-03-05T06:01:36.935Z,996.77
2019-03-05T06:02:36.938Z,996.77
2019-03-05T06:03:37.914Z,996.72
2019-03-05T06:04:36.901Z,996.82
2019-03-05T06:05:36.890Z,996.80
2019-03-05T06:06:36.882Z,996.77
2019-03-05T06:07:36.876Z,996.85
2019-03-05T06:08:36.875Z,996.80
2019-03-05T06:09:36.857Z,996.80
2019-03-05T06:10:36.838Z,996.83
2019-03-05T06:11:36.828Z,996.75
2019-03-05T06:12:36.828Z,996.86
2019-03-05T06:13:36.806Z,996.84
2019-03-05T06:14:36.809Z,996.94
2019-03-05T06:15:36.795Z,996.87
2019-03-05T06:16:36.777Z,996.89
2019-03-05T06:17:36.769Z,996.82
2019-03-05T06:18:36.753Z,996.85
2019-03-05T06:19:36.746Z,996.89
2019-03-05T06:20:36.747Z,996.81
2019-03-05T06:21:36.723Z,996.90
2019-03-05T06:22:36.713Z,996.84
2019-03-05T06:23:36.702Z,996.89
2019-03-05T06:24:36.691Z,996.82
2019-03-05T06:25:36.854Z,996.82
2019-03-05T06:26:36.680Z,996.82
2019-03-05T06:27:36.659Z,996.88
2019-03-05T06:28:36.648Z,996.84
2019-03-05T06:29:36.640Z,996.88
2019-03-05T06:30:36.627Z,996.89
2019-03-05T06:31:36.616Z,996.97
2019-03-05T06:32:36.623Z,996.92
2019-03-05T06:33:36.595Z,996.98
2019-03-05T06:34:36.593Z,996.92
2019-03-05T06:35:36.575Z,997.01
2019-03-05T06:36:36.564Z,996.96
2019-03-05T06:37:36.554Z,996.99
2019-03-05T06:38:36.557Z,997.00
2019-03-05T06:39:36.530Z,996.94
2019-03-05T06:40:36.521Z,996.94
2019-03-05T06:41:36.510Z,996.99
2019-03-05T06:42:36.500Z,997.05
2019-03-05T06:43:36.562Z,997.04
2019-03-05T06:44:36.488Z,997.06
2019-03-05T06:45:36.468Z,997.06
2019-03-05T06:46:36.456Z,997.04
2019-03-05T06:47:36.446Z,997.06
2019-03-05T06:48:36.437Z,997.04
2019-03-05T06:49:36.425Z,997.08
2019-03-05T06:50:36.426Z,997.08
2019-03-05T06:51:36.404Z,997.16
2019-03-05T06:52:36.394Z,997.11
2019-03-05T06:53:36.383Z,997.11
2019-03-05T06:54:36.372Z,997.16
2019-03-05T06:55:36.405Z,997.11
2019-03-05T06:56:36.361Z,997.19
2019-03-05T06:57:36.341Z,997.19
2019-03-05T06:58:36.329Z,997.21
2019-03-05T06:59:36.326Z,997.15
2019-03-05T07:00:36.310Z,997.16
2019-03-05T07:01:36.307Z,997.24
2019-03-05T07:02:36.303Z,997.21
2019-03-05T07:03:36.277Z,997.26
2019-03-05T07:04:36.268Z,997.28
2019-03-05T07:05:36.257Z,997.31
2019-03-05T07:06:36.247Z,997.30
2019-03-05T07:07:36.235Z,997.29
2019-03-05T07:08:36.236Z,997.36
2019-03-05T07:09:36.214Z,997.33
2019-03-05T07:10:36.202Z,997.44
2019-03-05T07:11:36.193Z,997.44
2019-03-05T07:12:36.198Z,997.46
2019-03-05T07:13:36.174Z,997.41
2019-03-05T07:14:36.173Z,997.39
2019-03-05T07:15:36.149Z,997.42
2019-03-05T07:16:36.159Z,997.42
2019-03-05T07:17:36.126Z,997.42
2019-03-05T07:18:36.158Z,997.41
2019-03-05T07:19:36.106Z,997.46
2019-03-05T07:20:36.105Z,997.48
2019-03-05T07:21:36.083Z,997.44
2019-03-05T07:22:36.072Z,997.49
2019-03-05T07:23:36.060Z,997.48
2019-03-05T07:24:36.054Z,997.52
2019-03-05T07:25:36.041Z,997.54
2019-03-05T07:26:36.041Z,997.49
2019-03-05T07:27:36.017Z,997.51
2019-03-05T07:28:36.008Z,997.43
2019-03-05T07:29:35.995Z,997.51
2019-03-05T07:30:35.984Z,997.41
2019-03-05T07:31:35.973Z,997.41
2019-03-05T07:32:35.985Z,997.53
2019-03-05T07:33:35.951Z,997.64
2019-03-05T07:34:35.942Z,997.55
2019-03-05T07:35:35.928Z,997.56
2019-03-05T07:36:35.931Z,997.63
2019-03-05T07:37:35.907Z,997.64
2019-03-05T07:38:35.911Z,997.63
2019-03-05T07:39:35.886Z,997.65
2019-03-05T07:40:35.938Z,997.78
2019-03-05T07:41:35.864Z,997.82
2019-03-05T07:42:35.854Z,997.74
2019-03-05T07:43:36.747Z,997.69
2019-03-05T07:44:35.904Z,997.80
2019-03-05T07:45:35.822Z,997.78
2019-03-05T07:46:35.810Z,997.85
2019-03-05T07:47:35.803Z,997.82
2019-03-05T07:48:35.792Z,997.86
2019-03-05T07:49:43.893Z,997.87
2019-03-05T07:50:36.778Z,997.84
2019-03-05T07:51:35.756Z,997.85
2019-03-05T07:52:35.746Z,997.92
2019-03-05T07:53:35.736Z,997.90
2019-03-05T07:54:35.724Z,997.94
2019-03-05T07:55:35.718Z,997.89
2019-03-05T07:56:35.713Z,997.91
2019-03-05T07:57:35.692Z,997.92
2019-03-05T07:58:35.681Z,997.94
2019-03-05T07:59:35.672Z,997.94
2019-03-05T08:00:35.660Z,997.97
2019-03-05T08:01:35.650Z,997.95
2019-03-05T08:02:35.655Z,997.90
2019-03-05T08:03:35.628Z,998.00
2019-03-05T08:04:35.618Z,997.99
2019-03-05T08:05:35.607Z,998.12
2019-03-05T08:06:35.596Z,998.00
2019-03-05T08:07:35.585Z,998.07
2019-03-05T08:08:35.586Z,998.02
2019-03-05T08:09:35.694Z,998.04
2019-03-05T08:10:35.555Z,998.06
2019-03-05T08:11:35.543Z,998.12
2019-03-05T08:12:35.540Z,997.94
2019-03-05T08:13:35.522Z,998.10
2019-03-05T08:14:35.522Z,997.98
2019-03-05T08:15:35.500Z,997.97
2019-03-05T08:16:35.490Z,998.13
2019-03-05T08:17:35.479Z,998.02
2019-03-05T08:18:35.472Z,998.20
2019-03-05T08:19:35.460Z,998.09
2019-03-05T08:20:35.463Z,998.08
2019-03-05T08:21:35.436Z,998.09
2019-03-05T08:22:35.426Z,998.10
2019-03-05T08:23:35.415Z,998.16
2019-03-05T08:24:35.406Z,998.21
2019-03-05T08:25:35.395Z,998.03
2019-03-05T08:26:35.397Z,998.17
2019-03-05T08:27:35.373Z,998.14
2019-03-05T08:28:35.362Z,998.28
2019-03-05T08:29:35.351Z,998.20
2019-03-05T08:30:35.343Z,998.22
2019-03-05T08:31:35.335Z,998.21
2019-03-05T08:32:35.339Z,998.24
2019-03-05T08:33:35.308Z,998.28
2019-03-05T08:34:35.298Z,998.24
2019-03-05T08:35:35.288Z,998.33
2019-03-05T08:36:35.275Z,998.35
2019-03-05T08:37:35.266Z,998.35
2019-03-05T08:38:35.264Z,998.36
2019-03-05T08:39:35.246Z,998.39
2019-03-05T08:40:35.231Z,998.42
2019-03-05T08:41:35.221Z,998.56
2019-03-05T08:42:35.211Z,998.51
2019-03-05T08:43:35.203Z,998.44
2019-03-05T08:44:35.216Z,998.48
2019-03-05T08:45:35.180Z,998.50
2019-03-05T08:46:35.167Z,998.45
2019-03-05T08:47:35.156Z,998.54
2019-03-05T08:48:35.145Z,998.59
2019-03-05T08:49:35.134Z,998.55
2019-03-05T08:50:35.137Z,998.57
2019-03-05T08:51:35.118Z,998.59
2019-03-05T08:52:35.104Z,998.62
2019-03-05T08:53:35.091Z,998.58
2019-03-05T08:54:35.080Z,998.61
2019-03-05T08:55:35.083Z,998.58
2019-03-05T08:56:35.093Z,998.60
2019-03-05T08:57:35.047Z,998.58
2019-03-05T08:58:35.036Z,998.54
2019-03-05T08:59:35.033Z,998.66
2019-03-05T09:00:35.015Z,998.64
2019-03-05T09:01:35.004Z,998.75
2019-03-05T09:02:35.004Z,998.70
2019-03-05T09:03:34.982Z,998.73
2019-03-05T09:04:35.032Z,998.78
2019-03-05T09:05:34.961Z,998.73
2019-03-05T09:06:34.948Z,998.74
2019-03-05T09:07:34.937Z,998.79
2019-03-05T09:08:34.937Z,998.77
2019-03-05T09:09:34.917Z,998.81
2019-03-05T09:10:34.906Z,998.84
2019-03-05T09:11:34.894Z,998.79
2019-03-05T09:12:34.883Z,998.75
2019-03-05T09:13:34.872Z,998.83
2019-03-05T09:14:34.878Z,998.94
2019-03-05T09:15:34.849Z,998.88
2019-03-05T09:16:34.839Z,998.85
2019-03-05T09:17:34.831Z,998.86
2019-03-05T09:18:34.820Z,998.85
2019-03-05T09:19:34.809Z,999.00
2019-03-05T09:20:34.824Z,998.99
2019-03-05T09:21:34.786Z,998.94
2019-03-05T09:22:34.776Z,998.90
2019-03-05T09:23:34.780Z,998.96
2019-03-05T09:24:34.751Z,998.98
2019-03-05T09:25:34.740Z,998.98
2019-03-05T09:26:34.740Z,998.99
2019-03-05T09:27:34.719Z,998.94
2019-03-05T09:28:34.713Z,998.96
2019-03-05T09:29:34.697Z,999.02
2019-03-05T09:30:34.690Z,998.96
2019-03-05T09:31:34.675Z,999.01
2019-03-05T09:32:34.686Z,999.00
2019-03-05T09:33:34.653Z,999.03
2019-03-05T09:34:34.644Z,998.97
2019-03-05T09:35:34.631Z,998.99
2019-03-05T09:36:34.620Z,999.05
2019-03-05T09:37:34.609Z,999.00
2019-03-05T09:38:34.616Z,999.08
2019-03-05T09:39:34.587Z,999.02
2019-03-05T09:40:34.578Z,999.03
2019-03-05T09:41:34.565Z,999.07
2019-03-05T09:42:39.981Z,999.17
2019-03-05T09:43:35.553Z,999.18
2019-03-05T09:44:34.532Z,999.22
2019-03-05T09:45:34.521Z,999.23
2019-03-05T09:46:34.510Z,999.24
2019-03-05T09:47:34.501Z,999.25
2019-03-05T09:48:34.490Z,999.29
2019-03-05T09:49:34.488Z,999.29
2019-03-05T09:50:34.467Z,999.28
2019-03-05T09:51:34.462Z,999.26
2019-03-05T09:52:34.449Z,999.25
2019-03-05T09:53:34.434Z,999.26
2019-03-05T09:54:34.427Z,999.30
2019-03-05T09:55:34.439Z,999.27
2019-03-05T09:56:34.404Z,999.25
2019-03-05T09:57:34.392Z,999.30
2019-03-05T09:58:34.381Z,999.31
2019-03-05T09:59:34.372Z,999.33
2019-03-05T10:00:34.362Z,999.33
2019-03-05T10:01:34.361Z,999.37
2019-03-05T10:02:34.340Z,999.40
2019-03-05T10:03:34.334Z,999.41
2019-03-05T10:04:34.317Z,999.44
2019-03-05T10:05:34.306Z,999.43
2019-03-05T10:06:34.295Z,999.42
2019-03-05T10:07:34.299Z,999.45
2019-03-05T10:08:34.273Z,999.41
2019-03-05T10:09:34.264Z,999.43
2019-03-05T10:10:34.252Z,999.43
2019-03-05T10:11:34.256Z,999.46
2019-03-05T10:12:34.232Z,999.46
2019-03-05T10:13:34.233Z,999.53
2019-03-05T10:14:34.215Z,999.47
2019-03-05T10:15:34.201Z,999.48
2019-03-05T10:16:34.187Z,999.47
2019-03-05T10:17:37.949Z,999.49
2019-03-05T10:18:34.163Z,999.45
2019-03-05T10:19:34.174Z,999.49
2019-03-05T10:20:34.145Z,999.50
2019-03-05T10:21:45.560Z,999.43
2019-03-05T10:22:35.126Z,999.53
2019-03-05T10:23:34.108Z,999.49
2019-03-05T10:24:34.098Z,999.46
2019-03-05T10:25:34.097Z,999.43
2019-03-05T10:26:34.078Z,999.48
2019-03-05T10:27:34.064Z,999.50
2019-03-05T10:28:34.056Z,999.50
2019-03-05T10:29:34.042Z,999.53
2019-03-05T10:30:34.034Z,999.58
2019-03-05T10:31:34.041Z,999.58
2019-03-05T10:32:34.011Z,999.58
2019-03-05T10:33:34.002Z,999.62
2019-03-05T10:34:33.989Z,999.56
2019-03-05T10:35:33.977Z,999.62
2019-03-05T10:36:33.966Z,999.67
2019-03-05T10:37:33.967Z,999.60
2019-03-05T10:38:33.945Z,999.64
2019-03-05T10:39:33.934Z,999.64
2019-03-05T10:40:33.922Z,999.68
2019-03-05T10:41:33.918Z,999.71
2019-03-05T10:42:33.902Z,999.68
2019-03-05T10:43:33.902Z,999.66
2019-03-05T10:44:33.880Z,999.66
2019-03-05T10:45:33.873Z,999.70
2019-03-05T10:46:33.858Z,999.78
2019-03-05T10:47:33.848Z,999.75
2019-03-05T10:48:33.838Z,999.76
2019-03-05T10:49:33.839Z,999.68
2019-03-05T10:50:33.817Z,999.77
2019-03-05T10:51:33.805Z,999.80
2019-03-05T10:52:33.794Z,999.81
2019-03-05T10:53:33.784Z,999.79
2019-03-05T10:54:33.774Z,999.82
2019-03-05T10:55:33.775Z,999.78
2019-03-05T10:56:33.759Z,999.82
2019-03-05T10:57:33.743Z,999.84
2019-03-05T10:58:34.543Z,999.83
2019-03-05T10:59:33.724Z,999.84
2019-03-05T11:00:33.709Z,999.85
2019-03-05T11:01:33.728Z,999.86
2019-03-05T11:02:33.720Z,999.91
2019-03-05T11:03:33.676Z,999.86
2019-03-05T11:04:33.671Z,999.83
2019-03-05T11:05:33.658Z,999.86
2019-03-05T11:06:33.644Z,999.87
2019-03-05T11:07:33.650Z,999.86
2019-03-05T11:08:33.624Z,999.91
2019-03-05T11:09:33.612Z,999.96
2019-03-05T11:10:33.605Z,999.97
2019-03-05T11:11:33.591Z,999.99
2019-03-05T11:12:33.581Z,999.96
2019-03-05T11:13:33.580Z,999.99
2019-03-05T11:14:33.559Z,1000.00
2019-03-05T11:15:33.567Z,1000.00
2019-03-05T11:16:33.539Z,1000.00
2019-03-05T11:17:33.527Z,1000.00
2019-03-05T11:18:33.531Z,1000.04
2019-03-05T11:19:33.523Z,1000.06
2019-03-05T11:20:33.514Z,1000.03
2019-03-05T11:21:33.485Z,1000.00
2019-03-05T11:22:33.475Z,1000.08
2019-03-05T11:23:33.465Z,1000.08
2019-03-05T11:24:33.465Z,1000.10
2019-03-05T11:25:33.453Z,1000.10
2019-03-05T11:26:33.439Z,1000.10
2019-03-05T11:27:33.422Z,1000.08
2019-03-05T11:28:33.411Z,1000.11
2019-03-05T11:29:33.402Z,1000.06
2019-03-05T11:30:36.399Z,1000.10
2019-03-05T11:31:33.389Z,1000.08
2019-03-05T11:32:33.368Z,1000.10
2019-03-05T11:33:33.358Z,1000.10
2019-03-05T11:34:33.346Z,1000.13
2019-03-05T11:35:33.335Z,1000.12
2019-03-05T11:36:33.558Z,1000.11
2019-03-05T11:37:33.325Z,1000.15
2019-03-05T11:38:33.303Z,1000.18
2019-03-05T11:39:33.296Z,1000.18
2019-03-05T11:40:33.294Z,1000.18
2019-03-05T11:41:33.279Z,1000.22
2019-03-05T11:42:33.261Z,1000.23
2019-03-05T11:43:33.278Z,1000.22
2019-03-05T11:44:33.242Z,1000.25
2019-03-05T11:45:33.228Z,1000.22
2019-03-05T11:46:33.222Z,1000.23
2019-03-05T11:47:33.207Z,1000.28
2019-03-05T11:48:33.199Z,1000.27
2019-03-05T11:49:33.201Z,1000.24
2019-03-05T11:50:33.175Z,1000.29
2019-03-05T11:51:33.165Z,1000.34
2019-03-05T11:52:33.155Z,1000.34
2019-03-05T11:53:33.154Z,1000.31
2019-03-05T11:54:33.134Z,1000.37
2019-03-05T11:55:33.133Z,1000.38
2019-03-05T11:56:33.115Z,1000.42
2019-03-05T11:57:33.102Z,1000.40
2019-03-05T11:58:33.092Z,1000.55
2019-03-05T11:59:33.083Z,1000.51
2019-03-05T12:00:33.069Z,1000.58
2019-03-05T12:01:33.073Z,1000.51
2019-03-05T12:02:33.057Z,1000.56
2019-03-05T12:03:33.038Z,1000.60
2019-03-05T12:04:33.026Z,1000.53
2019-03-05T12:05:33.014Z,1000.56
2019-03-05T12:06:33.004Z,1000.56
2019-03-05T12:07:33.003Z,1000.59
2019-03-05T12:08:32.985Z,1000.52
2019-03-05T12:09:32.971Z,1000.66
2019-03-05T12:10:32.960Z,1000.61
2019-03-05T12:11:32.948Z,1000.61
2019-03-05T12:12:32.937Z,1000.66
2019-03-05T12:13:32.940Z,1000.63
2019-03-05T12:14:32.915Z,1000.69
2019-03-05T12:15:32.904Z,1000.71
2019-03-05T12:16:32.894Z,1000.76
2019-03-05T12:17:32.891Z,1000.65
2019-03-05T12:18:32.873Z,1000.67
2019-03-05T12:19:32.874Z,1000.71
2019-03-05T12:20:32.851Z,1000.73
2019-03-05T12:21:32.839Z,1000.67
2019-03-05T12:22:32.843Z,1000.70
2019-03-05T12:23:32.819Z,1000.68
2019-03-05T12:24:32.807Z,1000.77
2019-03-05T12:25:36.174Z,1000.73
2019-03-05T12:26:33.785Z,1000.78